createdAt,value
2022-11-01T00:01:21.979Z,37.40
2022-11-01T00:03:50.160Z,41.10
2022-11-01T00:06:17.889Z,38.30
2022-11-01T00:08:45.709Z,40.30
2022-11-01T00:11:14.636Z,36.40
2022-11-01T00:13:44.771Z,39.90
2022-11-01T00:16:13.120Z,38.10
2022-11-01T00:18:41.288Z,35.50
2022-11-01T00:21:09.883Z,34.30
2022-11-01T00:23:37.778Z,36.60
2022-11-01T00:26:05.938Z,34.90
2022-11-01T00:28:34.523Z,36.90
2022-11-01T00:31:02.334Z,37.50
2022-11-01T00:33:30.087Z,38.20
2022-11-01T00:36:01.395Z,36.30
2022-11-01T00:38:29.618Z,37.40
2022-11-01T00:40:57.502Z,33.30
2022-11-01T00:43:25.304Z,34.90
2022-11-01T00:45:53.059Z,37.40
2022-11-01T00:48:21.168Z,34.30
2022-11-01T00:50:48.914Z,32.90
2022-11-01T00:53:16.958Z,34.10
2022-11-01T00:55:44.841Z,37.30
2022-11-01T00:58:12.638Z,30.30
2022-11-01T01:00:40.441Z,28.70
2022-11-01T01:03:08.315Z,34.40
2022-11-01T01:05:36.130Z,36.50
2022-11-01T01:08:04.011Z,35.00
2022-11-01T01:10:31.989Z,32.50
2022-11-01T01:13:00.139Z,33.30
2022-11-01T01:15:28.288Z,35.10
2022-11-01T01:17:56.097Z,35.20
2022-11-01T01:20:24.128Z,33.00
2022-11-01T01:22:51.917Z,29.60
2022-11-01T01:25:20.962Z,28.20
2022-11-01T01:27:49.375Z,30.50
2022-11-01T01:30:17.426Z,31.00
2022-11-01T01:32:45.206Z,28.90
2022-11-01T01:35:13.251Z,28.00
2022-11-01T01:37:41.315Z,29.40
2022-11-01T01:40:09.277Z,25.00
2022-11-01T01:42:38.494Z,27.70
2022-11-01T01:45:25.295Z,27.10
2022-11-01T01:47:54.687Z,29.60
2022-11-01T01:50:26.749Z,29.70
2022-11-01T01:52:54.543Z,28.10
2022-11-01T01:55:24.718Z,29.00
2022-11-01T01:57:53.510Z,28.70
2022-11-01T02:00:21.512Z,30.40
2022-11-01T02:02:50.863Z,28.30
2022-11-01T02:05:22.545Z,26.90
2022-11-01T02:07:50.370Z,23.80
2022-11-01T02:10:18.625Z,24.50
2022-11-01T02:12:47.829Z,22.30
2022-11-01T02:15:16.797Z,28.20
2022-11-01T02:17:44.586Z,25.70
2022-11-01T02:20:25.717Z,29.70
2022-11-01T02:23:08.691Z,27.20
2022-11-01T02:25:44.745Z,28.70
2022-11-01T02:28:12.468Z,27.00
2022-11-01T02:31:00.945Z,25.30
2022-11-01T02:33:39.833Z,26.80
2022-11-01T02:36:37.301Z,29.20
2022-11-01T02:39:09.968Z,27.50
2022-11-01T02:41:41.721Z,28.40
2022-11-01T02:44:16.891Z,28.20
2022-11-01T02:47:01.848Z,30.10
2022-11-01T02:49:38.618Z,26.20
2022-11-01T02:52:07.545Z,27.40
2022-11-01T02:54:39.985Z,31.50
2022-11-01T02:57:16.981Z,26.10
2022-11-01T02:59:46.536Z,27.50
2022-11-01T03:02:18.953Z,27.70
2022-11-01T03:04:47.407Z,21.80
2022-11-01T03:07:16.079Z,25.90
2022-11-01T03:09:44.299Z,24.30
2022-11-01T03:12:25.909Z,22.30
2022-11-01T03:14:53.671Z,21.60
2022-11-01T03:17:32.719Z,21.50
2022-11-01T03:20:06.102Z,18.10
2022-11-01T03:22:42.019Z,19.20
2022-11-01T03:25:31.750Z,20.10
2022-11-01T03:28:01.858Z,19.70
2022-11-01T03:30:30.721Z,20.70
2022-11-01T03:32:58.629Z,19.60
2022-11-01T03:35:28.139Z,18.30
2022-11-01T03:37:59.149Z,17.00
2022-11-01T03:40:28.927Z,16.60
2022-11-01T03:43:01.641Z,16.60
2022-11-01T03:45:30.802Z,13.00
2022-11-01T03:48:00.341Z,13.80
2022-11-01T03:50:29.116Z,15.80
2022-11-01T03:52:57.029Z,13.10
2022-11-01T03:55:25.055Z,12.80
2022-11-01T03:57:54.602Z,10.30
2022-11-01T04:00:25.363Z,10.30
2022-11-01T04:02:54.080Z,10.10
2022-11-01T04:05:22.649Z,12.30
2022-11-01T04:07:51.669Z,9.90
2022-11-01T04:10:20.467Z,7.90
2022-11-01T04:12:49.167Z,11.00
2022-11-01T04:15:36.922Z,10.80
2022-11-01T04:18:25.113Z,11.90
2022-11-01T04:20:53.808Z,7.90
2022-11-01T04:23:21.822Z,7.90
2022-11-01T04:25:50.124Z,7.80
2022-11-01T04:28:17.977Z,10.30
2022-11-01T04:30:45.826Z,7.80
2022-11-01T04:33:13.575Z,9.60
2022-11-01T04:35:41.666Z,11.20
2022-11-01T04:38:10.978Z,11.00
2022-11-01T04:40:39.227Z,9.10
2022-11-01T04:43:07.352Z,7.40
2022-11-01T04:45:35.312Z,7.70
2022-11-01T04:48:08.040Z,6.90
2022-11-01T04:50:36.157Z,6.60
2022-11-01T04:53:04.502Z,4.80
2022-11-01T04:55:32.611Z,5.20
2022-11-01T04:58:00.417Z,6.20
2022-11-01T05:00:28.333Z,6.00
2022-11-01T05:03:04.276Z,5.60
2022-11-01T05:05:32.806Z,4.60
2022-11-01T05:10:29.812Z,4.70
2022-11-01T05:12:57.656Z,5.70
2022-11-01T05:15:25.449Z,5.80
2022-11-01T05:17:53.239Z,4.90
2022-11-01T05:20:21.307Z,5.80
2022-11-01T05:22:49.256Z,5.50
2022-11-01T05:25:18.131Z,4.90
2022-11-01T05:27:45.868Z,4.00
2022-11-01T05:30:13.744Z,4.30
2022-11-01T05:32:41.626Z,5.80
2022-11-01T05:35:09.438Z,5.30
2022-11-01T05:37:37.282Z,4.00
2022-11-01T05:40:05.502Z,5.40
2022-11-01T05:42:33.234Z,4.20
2022-11-01T05:45:01.072Z,3.80
2022-11-01T05:47:28.882Z,5.20
2022-11-01T05:49:56.659Z,4.60
2022-11-01T05:52:24.445Z,3.50
2022-11-01T05:54:52.223Z,5.70
2022-11-01T05:57:20.034Z,7.90
2022-11-01T05:59:48.023Z,7.70
2022-11-01T06:02:16.426Z,5.70
2022-11-01T06:04:44.438Z,4.70
2022-11-01T06:07:12.186Z,5.00
2022-11-01T06:09:39.923Z,7.40
2022-11-01T06:12:07.773Z,5.60
2022-11-01T06:17:08.816Z,6.40
2022-11-01T06:19:36.574Z,6.40
2022-11-01T06:22:04.512Z,7.70
2022-11-01T06:24:32.313Z,7.10
2022-11-01T06:27:00.094Z,10.70
2022-11-01T06:29:28.178Z,8.80
2022-11-01T06:31:56.555Z,12.60
2022-11-01T06:34:24.409Z,7.60
2022-11-01T06:36:52.218Z,7.10
2022-11-01T06:39:20.037Z,7.70
2022-11-01T06:41:48.188Z,7.10
2022-11-01T06:44:16.015Z,7.70
2022-11-01T06:46:43.900Z,10.30
2022-11-01T06:49:16.354Z,9.40
2022-11-01T06:51:47.153Z,8.40
2022-11-01T06:54:15.071Z,8.20
2022-11-01T06:56:43.298Z,9.30
2022-11-01T06:59:11.266Z,8.20
2022-11-01T07:01:39.153Z,7.70
2022-11-01T07:04:07.428Z,8.40
2022-11-01T07:06:35.260Z,9.40
2022-11-01T07:09:03.196Z,8.80
2022-11-01T07:11:31.872Z,7.60
2022-11-01T07:14:00.191Z,8.80
2022-11-01T07:16:27.957Z,9.50
2022-11-01T07:18:56.154Z,7.10
2022-11-01T07:21:24.420Z,7.20
2022-11-01T07:23:54.170Z,6.60
2022-11-01T07:26:22.189Z,8.30
2022-11-01T07:28:49.943Z,4.90
2022-11-01T07:31:17.735Z,5.00
2022-11-01T07:33:45.526Z,5.10
2022-11-01T07:36:13.365Z,4.40
2022-11-01T07:38:41.228Z,5.70
2022-11-01T07:41:09.282Z,4.80
2022-11-01T07:43:38.807Z,4.70
2022-11-01T07:46:07.496Z,5.60
2022-11-01T07:48:37.084Z,4.20
2022-11-01T07:51:06.206Z,6.30
2022-11-01T07:53:34.149Z,5.90
2022-11-01T07:56:02.190Z,7.30
2022-11-01T07:58:30.174Z,5.50
2022-11-01T08:00:58.118Z,7.00
2022-11-01T08:03:26.115Z,5.70
2022-11-01T08:05:55.894Z,6.30
2022-11-01T08:08:23.747Z,5.70
2022-11-01T08:10:51.599Z,4.10
2022-11-01T08:13:20.876Z,3.80
2022-11-01T08:15:49.675Z,7.00
2022-11-01T08:18:18.466Z,5.10
2022-11-01T08:20:46.220Z,5.60
2022-11-01T08:23:14.816Z,5.50
2022-11-01T08:25:43.365Z,9.90
2022-11-01T08:28:12.792Z,4.00
2022-11-01T08:30:41.242Z,4.40
2022-11-01T08:33:09.539Z,5.30
2022-11-01T08:35:37.816Z,3.40
2022-11-01T09:06:01.210Z,5.20
2022-11-01T09:08:29.004Z,6.40
2022-11-01T09:11:00.434Z,6.20
2022-11-01T09:13:28.258Z,5.90
2022-11-01T09:15:59.931Z,7.10
2022-11-01T09:18:30.088Z,6.70
2022-11-01T09:20:57.773Z,9.50
2022-11-01T09:23:25.544Z,8.30
2022-11-01T09:25:53.863Z,9.00
2022-11-01T09:28:21.514Z,9.90
2022-11-01T09:30:49.998Z,6.90
2022-11-01T09:33:29.925Z,9.90
2022-11-01T09:35:59.730Z,8.50
2022-11-01T09:38:27.920Z,6.70
2022-11-01T09:41:16.986Z,7.40
2022-11-01T09:43:46.754Z,9.60
2022-11-01T09:46:18.403Z,9.90
2022-11-01T09:48:46.661Z,9.70
2022-11-01T09:51:21.387Z,8.70
2022-11-01T09:53:54.008Z,10.20
2022-11-01T09:56:30.387Z,8.20
2022-11-01T09:59:20.100Z,8.30
2022-11-01T10:02:19.493Z,14.30
2022-11-01T10:05:14.442Z,9.60
2022-11-01T10:08:06.877Z,6.80
2022-11-01T10:10:45.173Z,13.70
2022-11-01T10:13:39.274Z,6.30
2022-11-01T10:16:33.603Z,6.30
2022-11-01T10:19:19.087Z,4.60
2022-11-01T10:21:54.474Z,4.10
2022-11-01T10:25:05.019Z,5.10
2022-11-01T10:27:45.739Z,4.30
2022-11-01T10:30:16.518Z,4.70
2022-11-01T10:32:54.772Z,3.00
2022-11-01T10:35:27.987Z,2.80
2022-11-01T10:38:41.852Z,4.40
2022-11-01T10:41:11.883Z,4.20
2022-11-01T10:43:46.776Z,7.40
2022-11-01T10:46:20.007Z,3.40
2022-11-01T10:48:55.520Z,5.80
2022-11-01T10:51:28.069Z,7.90
2022-11-01T10:54:01.955Z,4.90
2022-11-01T10:56:44.741Z,6.40
2022-11-01T10:59:18.056Z,7.50
2022-11-01T11:01:48.103Z,12.30
2022-11-01T11:04:20.035Z,7.20
2022-11-01T11:06:47.773Z,5.70
2022-11-01T11:09:29.715Z,7.70
2022-11-01T11:12:02.288Z,10.50
2022-11-01T11:14:33.258Z,8.80
2022-11-01T11:17:03.497Z,8.20
2022-11-01T11:19:35.246Z,9.90
2022-11-01T11:22:07.181Z,7.50
2022-11-01T11:24:42.307Z,9.70
2022-11-01T11:27:23.807Z,9.30
2022-11-01T11:30:05.212Z,8.90
2022-11-01T11:32:38.868Z,8.70
2022-11-01T11:35:18.088Z,8.00
2022-11-01T11:37:57.831Z,7.10
2022-11-01T11:40:42.917Z,7.10
2022-11-01T11:43:24.592Z,6.20
2022-11-01T11:46:10.458Z,9.90
2022-11-01T11:48:47.171Z,8.60
2022-11-01T11:51:15.493Z,7.20
2022-11-01T11:53:43.872Z,8.80
2022-11-01T11:56:12.338Z,6.60
2022-11-01T11:58:50.118Z,8.70
2022-11-01T12:01:28.754Z,7.50
2022-11-01T12:04:00.143Z,7.90
2022-11-01T12:06:29.926Z,8.80
2022-11-01T12:08:59.668Z,7.10
2022-11-01T12:11:46.278Z,8.30
2022-11-01T12:14:24.088Z,9.70
2022-11-01T12:16:51.975Z,9.30
2022-11-01T12:19:27.482Z,8.90
2022-11-01T12:21:58.688Z,8.70
2022-11-01T12:24:31.845Z,7.20
2022-11-01T12:27:04.149Z,6.40
2022-11-01T12:29:34.092Z,8.20
2022-11-01T12:32:11.293Z,7.10
2022-11-01T12:34:42.928Z,6.40
2022-11-01T12:37:25.048Z,7.20
2022-11-01T12:40:01.951Z,8.20
2022-11-01T12:42:55.395Z,8.60
2022-11-01T12:45:44.579Z,9.40
2022-11-01T12:49:02.608Z,7.30
2022-11-01T12:51:37.046Z,10.80
2022-11-01T12:54:14.035Z,9.20
2022-11-01T12:56:42.077Z,11.30
2022-11-01T12:59:19.536Z,9.10
2022-11-01T13:01:53.121Z,9.00
2022-11-01T13:04:36.042Z,10.80
2022-11-01T13:07:03.682Z,7.80
2022-11-01T13:09:31.408Z,11.60
2022-11-01T13:12:20.756Z,10.00
2022-11-01T14:06:22.714Z,10.60
2022-11-01T14:08:52.229Z,13.40
2022-11-01T14:11:42.107Z,11.20
2022-11-01T14:14:29.721Z,12.40
2022-11-01T14:17:16.025Z,9.20
2022-11-01T14:19:47.278Z,9.90
2022-11-01T14:22:35.435Z,11.40
2022-11-01T14:25:14.982Z,22.40
2022-11-01T14:27:50.393Z,14.30
2022-11-01T14:30:24.627Z,12.40
2022-11-01T14:32:58.235Z,16.70
2022-11-01T14:35:33.893Z,12.00
2022-11-01T14:38:14.511Z,16.30
2022-11-01T14:40:56.807Z,20.10
2022-11-01T14:43:35.172Z,15.70
2022-11-01T14:46:16.104Z,13.90
2022-11-01T14:48:57.879Z,15.20
2022-11-01T14:51:34.790Z,13.40
2022-11-01T14:54:19.438Z,14.80
2022-11-01T14:56:52.259Z,16.00
2022-11-01T14:59:24.470Z,17.00
2022-11-01T15:02:01.118Z,12.60
2022-11-01T15:04:40.656Z,13.00
2022-11-01T15:07:40.398Z,14.90
2022-11-01T15:10:12.613Z,13.40
2022-11-01T15:12:52.429Z,12.70
2022-11-01T15:15:23.994Z,15.90
2022-11-01T15:17:58.385Z,15.50
2022-11-01T15:20:30.565Z,15.40
2022-11-01T15:22:59.242Z,15.50
2022-11-01T15:25:27.325Z,13.80
2022-11-01T15:27:57.013Z,18.00
2022-11-01T15:30:24.797Z,18.20
2022-11-01T15:33:24.231Z,17.90
2022-11-01T15:36:08.799Z,23.90
2022-11-01T15:38:53.759Z,20.40
2022-11-01T15:41:29.417Z,60.60
2022-11-01T15:43:59.731Z,20.10
2022-11-01T15:46:33.135Z,19.00
2022-11-01T15:49:06.692Z,16.00
2022-11-01T15:51:40.559Z,31.90
2022-11-01T15:54:34.289Z,17.20
2022-11-01T15:57:09.748Z,22.40
2022-11-01T15:59:53.346Z,39.60
2022-11-01T16:02:31.337Z,26.60
2022-11-01T16:04:59.208Z,56.10
2022-11-01T16:07:30.575Z,27.40
2022-11-01T16:10:00.273Z,50.40
2022-11-01T16:12:32.242Z,42.40
2022-11-01T16:15:28.240Z,28.70
2022-11-01T16:17:59.201Z,25.40
2022-11-01T16:20:30.835Z,19.90
2022-11-01T16:23:03.870Z,22.60
2022-11-01T16:25:34.585Z,22.50
2022-11-01T16:28:12.135Z,27.00
2022-11-01T16:30:46.507Z,21.60
2022-11-01T16:33:45.368Z,24.40
2022-11-01T16:36:19.124Z,29.70
2022-11-01T16:38:48.474Z,29.90
2022-11-01T16:41:24.885Z,26.90
2022-11-01T16:43:55.158Z,23.40
2022-11-01T16:46:25.428Z,28.20
2022-11-01T16:49:26.645Z,25.80
2022-11-01T16:51:56.750Z,29.50
2022-11-01T16:54:25.695Z,24.40
2022-11-01T16:56:56.363Z,29.80
2022-11-01T16:59:33.254Z,23.20
2022-11-01T17:02:03.718Z,26.80
2022-11-01T17:04:31.545Z,50.80
2022-11-01T17:06:59.295Z,31.10
2022-11-01T17:09:32.542Z,29.70
2022-11-01T17:12:00.153Z,29.40
2022-11-01T17:14:27.954Z,40.40
2022-11-01T17:16:56.461Z,30.80
2022-11-01T17:19:33.020Z,32.60
2022-11-01T17:22:05.651Z,30.10
2022-11-01T17:24:33.830Z,30.40
2022-11-01T17:27:05.384Z,25.30
2022-11-01T17:29:33.508Z,27.60
2022-11-01T17:32:02.888Z,29.30
2022-11-01T17:34:30.760Z,28.30
2022-11-01T17:36:58.599Z,21.90
2022-11-01T17:39:28.546Z,27.80
2022-11-01T17:41:58.293Z,30.00
2022-11-01T17:44:26.207Z,30.70
2022-11-01T17:46:54.317Z,26.70
2022-11-01T17:49:24.533Z,25.20
2022-11-01T17:51:54.956Z,27.50
2022-11-01T17:54:23.938Z,26.80
2022-11-01T17:56:51.729Z,22.20
2022-11-01T17:59:19.776Z,25.00
2022-11-01T18:01:47.954Z,25.10
2022-11-01T18:04:16.268Z,24.40
2022-11-01T18:06:44.193Z,24.90
2022-11-01T18:09:25.115Z,28.30
2022-11-01T18:12:02.761Z,25.80
2022-11-01T18:15:02.991Z,26.30
2022-11-01T18:17:54.118Z,28.20
2022-11-01T18:20:46.747Z,26.20
2022-11-01T18:23:18.149Z,33.00
2022-11-01T18:25:49.117Z,32.00
2022-11-01T18:28:19.474Z,35.10
2022-11-01T18:30:54.511Z,28.60
2022-11-01T18:33:48.404Z,31.60
2022-11-01T18:36:20.134Z,32.20
2022-11-01T18:39:13.095Z,30.00
2022-11-01T18:41:40.914Z,22.90
2022-11-01T18:44:12.450Z,25.60
2022-11-01T18:46:56.899Z,25.70
2022-11-01T18:49:28.820Z,27.70
2022-11-01T18:51:58.275Z,22.90
2022-11-01T18:54:30.429Z,26.20
2022-11-01T18:57:07.763Z,25.00
2022-11-01T18:59:39.114Z,23.20
2022-11-01T19:02:14.620Z,28.30
2022-11-01T19:04:43.934Z,26.80
2022-11-01T19:07:12.869Z,22.70
2022-11-01T19:09:47.888Z,26.70
2022-11-01T19:12:22.644Z,22.10
2022-11-01T19:15:03.806Z,20.10
2022-11-01T19:17:40.992Z,27.60
2022-11-01T19:20:25.471Z,22.50
2022-11-01T19:22:56.649Z,25.20
2022-11-01T19:28:04.279Z,24.70
2022-11-01T19:30:33.353Z,32.40
2022-11-01T19:33:14.999Z,31.20
2022-11-01T19:35:43.023Z,26.20
2022-11-01T19:38:16.001Z,27.00
2022-11-01T19:40:44.256Z,32.20
2022-11-01T19:43:16.054Z,30.70
2022-11-01T19:45:47.513Z,29.40
2022-11-01T19:48:22.477Z,24.90
2022-11-01T19:50:50.503Z,24.30
2022-11-01T19:53:22.286Z,36.60
2022-11-01T19:55:54.331Z,20.20
2022-11-01T19:58:27.230Z,24.20
2022-11-01T20:01:03.554Z,22.60
2022-11-01T20:03:39.979Z,26.40
2022-11-01T20:06:16.580Z,25.90
2022-11-01T20:08:47.306Z,24.90
2022-11-01T20:11:15.527Z,23.40
2022-11-01T20:13:43.543Z,23.00
2022-11-01T20:16:11.490Z,21.50
2022-11-01T20:18:39.546Z,20.40
2022-11-01T20:21:08.803Z,22.60
2022-11-01T20:23:36.789Z,22.30
2022-11-01T20:26:05.289Z,23.80
2022-11-01T20:28:33.648Z,23.90
2022-11-01T20:31:01.583Z,21.50
2022-11-01T20:33:29.317Z,20.60
2022-11-01T20:35:58.017Z,23.90
2022-11-01T20:38:26.183Z,20.50
2022-11-01T20:40:53.923Z,22.30
2022-11-01T20:43:21.945Z,21.40
2022-11-01T20:45:49.737Z,21.80
2022-11-01T20:48:18.443Z,20.40
2022-11-01T20:50:46.255Z,20.50
2022-11-01T20:53:14.982Z,18.30
2022-11-01T20:55:43.406Z,21.30
2022-11-01T20:58:14.220Z,20.30
2022-11-01T21:00:42.103Z,18.40
2022-11-01T21:03:19.603Z,20.00
2022-11-01T21:05:49.276Z,20.10
2022-11-01T21:08:24.556Z,19.70
2022-11-01T21:11:02.299Z,20.10
2022-11-01T21:13:39.147Z,26.30
2022-11-01T21:16:19.953Z,25.30
2022-11-01T21:18:48.427Z,24.90
2022-11-01T21:21:16.095Z,22.40
2022-11-01T21:23:44.622Z,24.10
2022-11-01T21:26:17.548Z,23.90
2022-11-01T21:29:07.684Z,22.20
2022-11-01T21:31:39.040Z,18.80
2022-11-01T21:34:10.147Z,19.80
2022-11-01T21:39:20.385Z,16.30
2022-11-01T21:41:57.200Z,19.50
2022-11-01T21:44:27.238Z,16.20
2022-11-01T21:47:17.798Z,21.10
2022-11-01T21:49:45.611Z,18.00
2022-11-01T21:52:13.477Z,21.10
2022-11-01T21:54:43.202Z,18.00
2022-11-01T21:57:12.561Z,21.60
2022-11-01T21:59:41.024Z,17.80
2022-11-01T22:02:12.681Z,19.10
2022-11-01T22:04:40.915Z,17.70
2022-11-01T22:07:10.317Z,21.10
2022-11-01T22:09:38.531Z,17.40
2022-11-01T22:12:07.327Z,20.80
2022-11-01T22:14:35.544Z,20.10
2022-11-01T22:17:03.811Z,20.10
2022-11-01T22:19:31.607Z,18.70
2022-11-01T22:21:59.429Z,18.20
2022-11-01T22:24:27.393Z,16.40
2022-11-01T22:26:55.374Z,18.60
2022-11-01T22:29:23.106Z,16.40
2022-11-01T22:31:51.001Z,18.30
2022-11-01T22:34:18.688Z,19.60
2022-11-01T22:36:46.346Z,17.20
2022-11-01T22:39:22.744Z,18.00
2022-11-01T22:41:51.304Z,17.80
2022-11-01T22:44:28.379Z,17.60
2022-11-01T22:47:01.705Z,18.40
2022-11-01T22:49:34.136Z,19.40
2022-11-01T22:52:03.375Z,19.80
2022-11-01T22:54:40.512Z,19.00
2022-11-01T22:57:08.145Z,19.20
2022-11-01T22:59:53.178Z,17.70
2022-11-01T23:02:28.632Z,16.00
2022-11-01T23:05:19.089Z,18.30
2022-11-01T23:07:55.581Z,20.10
2022-11-01T23:10:25.569Z,17.70
2022-11-01T23:13:31.454Z,16.60
2022-11-01T23:16:02.230Z,17.70
2022-11-01T23:18:33.133Z,15.50
2022-11-01T23:21:05.087Z,17.40
2022-11-01T23:23:36.757Z,16.50
2022-11-01T23:26:04.815Z,14.00
2022-11-01T23:28:37.167Z,16.20
2022-11-01T23:31:05.852Z,14.30
2022-11-01T23:33:45.039Z,18.70
2022-11-01T23:36:33.135Z,17.10
2022-11-01T23:39:06.777Z,14.00
2022-11-01T23:41:37.376Z,15.30
2022-11-01T23:44:27.769Z,17.50
2022-11-01T23:47:05.720Z,14.80
2022-11-01T23:49:34.736Z,16.40
2022-11-01T23:52:22.358Z,15.60
2022-11-01T23:54:50.171Z,16.30
2022-11-01T23:57:20.347Z,15.00
2022-11-01T23:59:49.558Z,17.90
